EDSB/FKB METAR and TAF weather

Enter ICAO airport designator
Station Type Date Time Source
EDSB METAR 2021/05/14 12:50 UTC NOAA

EDSB 141250Z 18013KT 9999 VCSH FEW030 SCT060TCU 14/07 Q1009


Station Type Date Time Source
EDSB Decoded METAR 2021/05/14 12:50 UTC NOAA

Karlsruhe, Baden Wurttemberg, Germany (EDSB) 48-46-43N 008-04-47E
May 14, 2021 - 08:50 AM EDT / 2021.05.14 1250 UTC
Wind: from the S (180 degrees) at 15 MPH (13 KT):0
Visibility: greater than 7 mile(s):0
Sky conditions: partly cloudy
Weather: showers in the vicinity; Towering cumulus clouds observed
Temperature: 57 F (14 C)
Dew Point: 44 F (7 C)
Relative Humidity: 62%
Pressure (altimeter): 29.80 in. Hg (1009 hPa)
ob: EDSB 141250Z 18013KT 9999 VCSH FEW030 SCT060TCU 14/07 Q1009
cycle: 13

Station Type Date Time Source
EDSB TAF 2021/05/14 12:27 UTC NOAA

TAF EDSB 141100Z 1412/1512 22008KT 9999 SCT035
TEMPO 1412/1418 SHRA BKN030CB PROB30
TEMPO 1412/1417 TSRA
TEMPO 1508/1512 RA

Example: see airport list